sensor_id;sensor_type;location;lat;lon;timestamp;temperature;humidity
75683;HTU21D;64295;44.772;39.872;2022-11-11T00:00:32;6.61;80.27
75683;HTU21D;64295;44.772;39.872;2022-11-11T00:03:16;6.59;80.30
75683;HTU21D;64295;44.772;39.872;2022-11-11T00:06:09;6.57;80.40
75683;HTU21D;64295;44.772;39.872;2022-11-11T00:08:53;6.57;80.33
75683;HTU21D;64295;44.772;39.872;2022-11-11T00:11:38;6.56;80.37
75683;HTU21D;64295;44.772;39.872;2022-11-11T00:14:22;6.50;80.43
75683;HTU21D;64295;44.772;39.872;2022-11-11T00:17:11;6.46;80.55
75683;HTU21D;64295;44.772;39.872;2022-11-11T00:20:14;6.51;80.43
75683;HTU21D;64295;44.772;39.872;2022-11-11T00:23:25;6.54;80.33
75683;HTU21D;64295;44.772;39.872;2022-11-11T00:26:28;6.56;80.23
75683;HTU21D;64295;44.772;39.872;2022-11-11T00:29:13;6.54;80.24
75683;HTU21D;64295;44.772;39.872;2022-11-11T00:31:57;6.54;80.32
75683;HTU21D;64295;44.772;39.872;2022-11-11T00:35:01;6.48;80.33
75683;HTU21D;64295;44.772;39.872;2022-11-11T00:38:11;6.38;80.51
75683;HTU21D;64295;44.772;39.872;2022-11-11T00:41:20;6.40;80.50
75683;HTU21D;64295;44.772;39.872;2022-11-11T00:44:05;6.41;80.40
75683;HTU21D;64295;44.772;39.872;2022-11-11T00:46:49;6.39;80.44
75683;HTU21D;64295;44.772;39.872;2022-11-11T00:49:52;6.40;80.46
75683;HTU21D;64295;44.772;39.872;2022-11-11T00:52:55;6.45;80.37
75683;HTU21D;64295;44.772;39.872;2022-11-11T00:55:40;6.43;80.42
75683;HTU21D;64295;44.772;39.872;2022-11-11T00:58:24;6.41;80.50
75683;HTU21D;64295;44.772;39.872;2022-11-11T01:01:11;6.42;80.46
75683;HTU21D;64295;44.772;39.872;2022-11-11T01:03:57;6.44;80.41
75683;HTU21D;64295;44.772;39.872;2022-11-11T01:06:41;6.45;80.42
75683;HTU21D;64295;44.772;39.872;2022-11-11T01:09:26;6.50;80.38
75683;HTU21D;64295;44.772;39.872;2022-11-11T01:12:10;6.50;80.34
75683;HTU21D;64295;44.772;39.872;2022-11-11T01:14:55;6.46;80.44
75683;HTU21D;64295;44.772;39.872;2022-11-11T01:17:39;6.48;80.49
75683;HTU21D;64295;44.772;39.872;2022-11-11T01:20:24;6.49;80.48
75683;HTU21D;64295;44.772;39.872;2022-11-11T01:23:10;6.45;80.52
75683;HTU21D;64295;44.772;39.872;2022-11-11T01:25:54;6.46;80.54
75683;HTU21D;64295;44.772;39.872;2022-11-11T01:28:51;6.49;80.54
75683;HTU21D;64295;44.772;39.872;2022-11-11T01:31:35;6.53;80.47
75683;HTU21D;64295;44.772;39.872;2022-11-11T01:34:20;6.51;80.46
75683;HTU21D;64295;44.772;39.872;2022-11-11T01:37:04;6.49;80.52
75683;HTU21D;64295;44.772;39.872;2022-11-11T01:39:49;6.49;80.56
75683;HTU21D;64295;44.772;39.872;2022-11-11T01:42:53;6.51;80.61
75683;HTU21D;64295;44.772;39.872;2022-11-11T01:46:00;6.54;80.52
75683;HTU21D;64295;44.772;39.872;2022-11-11T01:48:53;6.56;80.43
75683;HTU21D;64295;44.772;39.872;2022-11-11T01:52:19;6.56;80.46
75683;HTU21D;64295;44.772;39.872;2022-11-11T01:55:16;6.55;80.44
75683;HTU21D;64295;44.772;39.872;2022-11-11T01:58:05;6.57;80.47
75683;HTU21D;64295;44.772;39.872;2022-11-11T02:00:50;6.58;80.45
75683;HTU21D;64295;44.772;39.872;2022-11-11T02:03:39;6.63;80.46
75683;HTU21D;64295;44.772;39.872;2022-11-11T02:06:25;6.64;80.40
75683;HTU21D;64295;44.772;39.872;2022-11-11T02:09:11;6.59;80.46
75683;HTU21D;64295;44.772;39.872;2022-11-11T02:11:57;6.58;80.56
75683;HTU21D;64295;44.772;39.872;2022-11-11T02:15:03;6.59;80.51
75683;HTU21D;64295;44.772;39.872;2022-11-11T02:17:48;6.57;80.56
75683;HTU21D;64295;44.772;39.872;2022-11-11T02:20:42;6.52;80.65
75683;HTU21D;64295;44.772;39.872;2022-11-11T02:26:16;6.46;80.71
75683;HTU21D;64295;44.772;39.872;2022-11-11T02:29:11;6.48;80.78
75683;HTU21D;64295;44.772;39.872;2022-11-11T02:31:57;6.50;80.71
75683;HTU21D;64295;44.772;39.872;2022-11-11T02:34:41;6.54;80.62
75683;HTU21D;64295;44.772;39.872;2022-11-11T02:37:26;6.53;80.61
75683;HTU21D;64295;44.772;39.872;2022-11-11T02:40:13;6.54;80.62
75683;HTU21D;64295;44.772;39.872;2022-11-11T02:42:59;6.50;80.62
75683;HTU21D;64295;44.772;39.872;2022-11-11T02:45:44;6.46;80.73
75683;HTU21D;64295;44.772;39.872;2022-11-11T02:48:29;6.48;80.75
75683;HTU21D;64295;44.772;39.872;2022-11-11T02:51:14;6.41;80.75
75683;HTU21D;64295;44.772;39.872;2022-11-11T02:53:58;6.36;80.89
75683;HTU21D;64295;44.772;39.872;2022-11-11T02:56:46;6.33;80.90
75683;HTU21D;64295;44.772;39.872;2022-11-11T02:59:49;6.28;80.92
75683;HTU21D;64295;44.772;39.872;2022-11-11T03:02:34;6.26;80.95
75683;HTU21D;64295;44.772;39.872;2022-11-11T03:05:18;6.24;80.95
75683;HTU21D;64295;44.772;39.872;2022-11-11T03:08:03;6.24;80.96
75683;HTU21D;64295;44.772;39.872;2022-11-11T03:10:48;6.23;80.91
75683;HTU21D;64295;44.772;39.872;2022-11-11T03:13:32;6.23;80.95
75683;HTU21D;64295;44.772;39.872;2022-11-11T03:16:17;6.24;80.90
75683;HTU21D;64295;44.772;39.872;2022-11-11T03:19:20;6.24;80.82
75683;HTU21D;64295;44.772;39.872;2022-11-11T03:22:04;6.20;80.87
75683;HTU21D;64295;44.772;39.872;2022-11-11T03:24:48;6.15;80.91
75683;HTU21D;64295;44.772;39.872;2022-11-11T03:27:51;6.09;80.96
75683;HTU21D;64295;44.772;39.872;2022-11-11T03:30:37;6.05;81.01
75683;HTU21D;64295;44.772;39.872;2022-11-11T03:33:22;6.04;81.00
75683;HTU21D;64295;44.772;39.872;2022-11-11T03:36:07;5.98;81.04
75683;HTU21D;64295;44.772;39.872;2022-11-11T03:38:52;5.99;81.01
75683;HTU21D;64295;44.772;39.872;2022-11-11T03:41:36;5.97;81.04
75683;HTU21D;64295;44.772;39.872;2022-11-11T03:44:20;5.97;80.98
75683;HTU21D;64295;44.772;39.872;2022-11-11T03:47:05;5.98;80.98
75683;HTU21D;64295;44.772;39.872;2022-11-11T03:49:50;6.00;80.90
75683;HTU21D;64295;44.772;39.872;2022-11-11T03:52:40;5.96;80.88
75683;HTU21D;64295;44.772;39.872;2022-11-11T03:55:26;5.94;80.90
75683;HTU21D;64295;44.772;39.872;2022-11-11T03:58:11;5.92;80.86
75683;HTU21D;64295;44.772;39.872;2022-11-11T04:00:55;5.86;80.87
75683;HTU21D;64295;44.772;39.872;2022-11-11T04:03:40;5.82;80.91
75683;HTU21D;64295;44.772;39.872;2022-11-11T04:06:43;5.77;80.96
75683;HTU21D;64295;44.772;39.872;2022-11-11T04:09:46;5.75;81.01
75683;HTU21D;64295;44.772;39.872;2022-11-11T04:12:49;5.70;81.01
75683;HTU21D;64295;44.772;39.872;2022-11-11T04:15:52;5.70;81.00
75683;HTU21D;64295;44.772;39.872;2022-11-11T04:18:52;5.62;81.04
75683;HTU21D;64295;44.772;39.872;2022-11-11T04:21:55;5.54;81.16
75683;HTU21D;64295;44.772;39.872;2022-11-11T04:24:39;5.49;81.16
75683;HTU21D;64295;44.772;39.872;2022-11-11T04:27:42;5.37;81.25
75683;HTU21D;64295;44.772;39.872;2022-11-11T04:30:26;5.28;81.41
75683;HTU21D;64295;44.772;39.872;2022-11-11T04:33:11;5.28;81.34
75683;HTU21D;64295;44.772;39.872;2022-11-11T04:35:55;5.28;81.27
75683;HTU21D;64295;44.772;39.872;2022-11-11T04:38:40;5.34;81.18
75683;HTU21D;64295;44.772;39.872;2022-11-11T04:41:42;5.39;80.95
75683;HTU21D;64295;44.772;39.872;2022-11-11T04:44:27;5.40;80.89
75683;HTU21D;64295;44.772;39.872;2022-11-11T04:47:30;5.46;80.78
75683;HTU21D;64295;44.772;39.872;2022-11-11T04:50:14;5.49;80.65
75683;HTU21D;64295;44.772;39.872;2022-11-11T04:53:00;5.42;80.76
75683;HTU21D;64295;44.772;39.872;2022-11-11T04:55:44;5.39;80.81
75683;HTU21D;64295;44.772;39.872;2022-11-11T04:58:47;5.35;80.83
75683;HTU21D;64295;44.772;39.872;2022-11-11T05:01:52;5.36;80.81
75683;HTU21D;64295;44.772;39.872;2022-11-11T05:05:14;5.40;80.62
75683;HTU21D;64295;44.772;39.872;2022-11-11T05:07:58;5.34;80.73
75683;HTU21D;64295;44.772;39.872;2022-11-11T05:11:02;5.33;80.69
75683;HTU21D;64295;44.772;39.872;2022-11-11T05:13:46;5.35;80.67
75683;HTU21D;64295;44.772;39.872;2022-11-11T05:16:54;5.36;80.59
75683;HTU21D;64295;44.772;39.872;2022-11-11T05:19:58;5.30;80.64
75683;HTU21D;64295;44.772;39.872;2022-11-11T05:23:01;5.32;80.65
75683;HTU21D;64295;44.772;39.872;2022-11-11T05:25:45;5.21;80.66
75683;HTU21D;64295;44.772;39.872;2022-11-11T05:28:31;5.10;80.97
75683;HTU21D;64295;44.772;39.872;2022-11-11T05:31:15;5.06;80.98
75683;HTU21D;64295;44.772;39.872;2022-11-11T05:33:59;5.07;80.98
75683;HTU21D;64295;44.772;39.872;2022-11-11T05:36:44;5.07;80.77
75683;HTU21D;64295;44.772;39.872;2022-11-11T05:39:28;4.97;81.00
75683;HTU21D;64295;44.772;39.872;2022-11-11T05:42:13;4.97;81.04
75683;HTU21D;64295;44.772;39.872;2022-11-11T05:44:57;5.00;80.85
75683;HTU21D;64295;44.772;39.872;2022-11-11T05:47:47;5.01;80.86
75683;HTU21D;64295;44.772;39.872;2022-11-11T05:50:31;4.95;80.66
75683;HTU21D;64295;44.772;39.872;2022-11-11T05:53:18;4.93;80.81
75683;HTU21D;64295;44.772;39.872;2022-11-11T05:56:07;5.01;80.69
75683;HTU21D;64295;44.772;39.872;2022-11-11T05:58:53;5.08;80.52
75683;HTU21D;64295;44.772;39.872;2022-11-11T06:01:38;5.10;80.42
75683;HTU21D;64295;44.772;39.872;2022-11-11T06:04:23;5.08;80.49
75683;HTU21D;64295;44.772;39.872;2022-11-11T06:07:07;5.10;80.46
75683;HTU21D;64295;44.772;39.872;2022-11-11T06:09:52;5.09;80.41
75683;HTU21D;64295;44.772;39.872;2022-11-11T06:12:57;5.04;80.54
75683;HTU21D;64295;44.772;39.872;2022-11-11T06:15:55;5.10;80.48
75683;HTU21D;64295;44.772;39.872;2022-11-11T06:18:40;5.20;80.30
75683;HTU21D;64295;44.772;39.872;2022-11-11T06:21:26;5.27;80.20
75683;HTU21D;64295;44.772;39.872;2022-11-11T06:24:10;5.31;80.11
75683;HTU21D;64295;44.772;39.872;2022-11-11T06:26:55;5.25;80.24
75683;HTU21D;64295;44.772;39.872;2022-11-11T06:29:39;5.18;80.30
75683;HTU21D;64295;44.772;39.872;2022-11-11T06:32:23;5.13;80.31
75683;HTU21D;64295;44.772;39.872;2022-11-11T06:35:08;4.97;80.59
75683;HTU21D;64295;44.772;39.872;2022-11-11T06:37:52;4.90;80.71
75683;HTU21D;64295;44.772;39.872;2022-11-11T06:40:36;4.91;80.76
75683;HTU21D;64295;44.772;39.872;2022-11-11T06:43:21;5.01;80.58
75683;HTU21D;64295;44.772;39.872;2022-11-11T06:46:06;5.09;80.36
75683;HTU21D;64295;44.772;39.872;2022-11-11T06:48:50;5.13;80.27
75683;HTU21D;64295;44.772;39.872;2022-11-11T06:51:34;5.25;80.11
75683;HTU21D;64295;44.772;39.872;2022-11-11T06:54:19;5.31;80.00
75683;HTU21D;64295;44.772;39.872;2022-11-11T06:57:03;5.32;80.08
75683;HTU21D;64295;44.772;39.872;2022-11-11T06:59:48;5.36;79.98
75683;HTU21D;64295;44.772;39.872;2022-11-11T07:02:32;5.40;79.95
75683;HTU21D;64295;44.772;39.872;2022-11-11T07:05:16;5.36;80.04
75683;HTU21D;64295;44.772;39.872;2022-11-11T07:08:03;5.45;80.04
75683;HTU21D;64295;44.772;39.872;2022-11-11T07:10:48;5.45;79.95
75683;HTU21D;64295;44.772;39.872;2022-11-11T07:13:32;5.47;79.98
75683;HTU21D;64295;44.772;39.872;2022-11-11T07:16:17;5.47;79.88
75683;HTU21D;64295;44.772;39.872;2022-11-11T07:19:01;5.42;80.04
75683;HTU21D;64295;44.772;39.872;2022-11-11T07:21:46;5.53;79.92
75683;HTU21D;64295;44.772;39.872;2022-11-11T07:24:30;5.54;79.85
75683;HTU21D;64295;44.772;39.872;2022-11-11T07:27:17;5.55;79.95
75683;HTU21D;64295;44.772;39.872;2022-11-11T07:30:02;5.67;79.88
75683;HTU21D;64295;44.772;39.872;2022-11-11T07:32:48;5.82;79.66
75683;HTU21D;64295;44.772;39.872;2022-11-11T07:35:35;6.00;79.45
75683;HTU21D;64295;44.772;39.872;2022-11-11T07:38:20;6.14;79.16
75683;HTU21D;64295;44.772;39.872;2022-11-11T07:41:04;6.04;79.36
75683;HTU21D;64295;44.772;39.872;2022-11-11T07:43:51;6.02;79.53
75683;HTU21D;64295;44.772;39.872;2022-11-11T07:46:35;6.02;79.56
75683;HTU21D;64295;44.772;39.872;2022-11-11T07:49:20;6.05;79.70
75683;HTU21D;64295;44.772;39.872;2022-11-11T07:52:04;6.02;79.72
75683;HTU21D;64295;44.772;39.872;2022-11-11T07:54:50;6.02;79.74
75683;HTU21D;64295;44.772;39.872;2022-11-11T07:57:36;6.02;79.85
75683;HTU21D;64295;44.772;39.872;2022-11-11T08:00:20;6.10;79.77
75683;HTU21D;64295;44.772;39.872;2022-11-11T08:03:04;6.11;79.69
75683;HTU21D;64295;44.772;39.872;2022-11-11T08:05:54;6.14;79.85
75683;HTU21D;64295;44.772;39.872;2022-11-11T08:08:39;6.27;79.66
75683;HTU21D;64295;44.772;39.872;2022-11-11T08:11:23;6.31;79.40
75683;HTU21D;64295;44.772;39.872;2022-11-11T08:14:26;6.28;79.67
75683;HTU21D;64295;44.772;39.872;2022-11-11T08:17:10;6.28;79.77
75683;HTU21D;64295;44.772;39.872;2022-11-11T08:19:56;6.39;79.74
75683;HTU21D;64295;44.772;39.872;2022-11-11T08:22:41;6.53;79.52
75683;HTU21D;64295;44.772;39.872;2022-11-11T08:25:26;6.65;79.43
75683;HTU21D;64295;44.772;39.872;2022-11-11T08:28:11;6.75;79.28
75683;HTU21D;64295;44.772;39.872;2022-11-11T08:31:00;6.76;79.35
75683;HTU21D;64295;44.772;39.872;2022-11-11T08:33:44;6.82;79.37
75683;HTU21D;64295;44.772;39.872;2022-11-11T08:36:29;6.84;79.46
75683;HTU21D;64295;44.772;39.872;2022-11-11T08:39:14;6.82;79.53
75683;HTU21D;64295;44.772;39.872;2022-11-11T08:41:58;6.72;79.82
75683;HTU21D;64295;44.772;39.872;2022-11-11T08:44:43;6.72;79.99
75683;HTU21D;64295;44.772;39.872;2022-11-11T08:47:27;6.79;79.97
75683;HTU21D;64295;44.772;39.872;2022-11-11T08:50:12;6.87;79.90
75683;HTU21D;64295;44.772;39.872;2022-11-11T08:52:56;6.94;79.85
75683;HTU21D;64295;44.772;39.872;2022-11-11T08:55:41;6.89;79.94
75683;HTU21D;64295;44.772;39.872;2022-11-11T08:58:25;6.82;80.19
75683;HTU21D;64295;44.772;39.872;2022-11-11T09:01:14;6.80;80.39
75683;HTU21D;64295;44.772;39.872;2022-11-11T09:03:58;6.89;80.31
75683;HTU21D;64295;44.772;39.872;2022-11-11T09:06:42;7.01;80.14
75683;HTU21D;64295;44.772;39.872;2022-11-11T09:09:28;7.14;79.98
75683;HTU21D;64295;44.772;39.872;2022-11-11T09:12:13;7.28;79.87
75683;HTU21D;64295;44.772;39.872;2022-11-11T09:14:58;7.39;79.75
75683;HTU21D;64295;44.772;39.872;2022-11-11T09:17:47;7.44;79.79
75683;HTU21D;64295;44.772;39.872;2022-11-11T09:20:31;7.55;79.72
75683;HTU21D;64295;44.772;39.872;2022-11-11T09:23:16;7.65;79.69
75683;HTU21D;64295;44.772;39.872;2022-11-11T09:26:00;7.73;79.62
75683;HTU21D;64295;44.772;39.872;2022-11-11T09:28:47;7.77;79.66
75683;HTU21D;64295;44.772;39.872;2022-11-11T09:31:31;7.86;79.62
75683;HTU21D;64295;44.772;39.872;2022-11-11T09:34:16;7.92;79.65
75683;HTU21D;64295;44.772;39.872;2022-11-11T09:37:00;7.96;79.66
75683;HTU21D;64295;44.772;39.872;2022-11-11T09:39:45;8.00;79.65
75683;HTU21D;64295;44.772;39.872;2022-11-11T09:42:39;8.02;79.69
75683;HTU21D;64295;44.772;39.872;2022-11-11T09:45:41;8.05;79.62
75683;HTU21D;64295;44.772;39.872;2022-11-11T09:55:03;7.81;80.14
75683;HTU21D;64295;44.772;39.872;2022-11-11T09:57:52;7.70;80.44
75683;HTU21D;64295;44.772;39.872;2022-11-11T10:00:45;7.75;80.38
75683;HTU21D;64295;44.772;39.872;2022-11-11T10:03:35;7.81;80.30
75683;HTU21D;64295;44.772;39.872;2022-11-11T10:06:26;7.84;80.24
75683;HTU21D;64295;44.772;39.872;2022-11-11T10:12:15;7.91;80.13
75683;HTU21D;64295;44.772;39.872;2022-11-11T10:15:00;7.97;80.05
75683;HTU21D;64295;44.772;39.872;2022-11-11T10:20:55;8.00;79.99
75683;HTU21D;64295;44.772;39.872;2022-11-11T10:23:39;7.89;80.18
75683;HTU21D;64295;44.772;39.872;2022-11-11T10:26:36;7.85;80.36
75683;HTU21D;64295;44.772;39.872;2022-11-11T10:29:24;8.00;80.40
75683;HTU21D;64295;44.772;39.872;2022-11-11T10:34:56;8.14;80.10
75683;HTU21D;64295;44.772;39.872;2022-11-11T10:37:43;8.11;80.06
75683;HTU21D;64295;44.772;39.872;2022-11-11T10:40:38;8.09;80.18
75683;HTU21D;64295;44.772;39.872;2022-11-11T10:43:26;8.17;80.07
75683;HTU21D;64295;44.772;39.872;2022-11-11T10:46:18;8.22;80.05
75683;HTU21D;64295;44.772;39.872;2022-11-11T10:49:14;8.28;79.98
75683;HTU21D;64295;44.772;39.872;2022-11-11T10:52:14;8.31;79.98
75683;HTU21D;64295;44.772;39.872;2022-11-11T10:55:08;8.36;79.99
75683;HTU21D;64295;44.772;39.872;2022-11-11T11:00:51;8.50;79.84
75683;HTU21D;64295;44.772;39.872;2022-11-11T11:03:51;8.55;79.75
75683;HTU21D;64295;44.772;39.872;2022-11-11T11:06:42;8.53;79.83
75683;HTU21D;64295;44.772;39.872;2022-11-11T11:15:16;8.59;79.73
75683;HTU21D;64295;44.772;39.872;2022-11-11T11:18:11;8.55;79.78
75683;HTU21D;64295;44.772;39.872;2022-11-11T11:23:44;8.50;79.95
75683;HTU21D;64295;44.772;39.872;2022-11-11T11:26:46;8.47;79.95
75683;HTU21D;64295;44.772;39.872;2022-11-11T11:29:34;8.43;80.02
75683;HTU21D;64295;44.772;39.872;2022-11-11T11:32:26;8.39;80.03
75683;HTU21D;64295;44.772;39.872;2022-11-11T11:35:32;8.41;80.11
75683;HTU21D;64295;44.772;39.872;2022-11-11T11:38:17;8.48;79.97
75683;HTU21D;64295;44.772;39.872;2022-11-11T11:41:02;8.49;79.95
75683;HTU21D;64295;44.772;39.872;2022-11-11T11:43:46;8.50;79.98
75683;HTU21D;64295;44.772;39.872;2022-11-11T11:46:38;8.50;79.99
75683;HTU21D;64295;44.772;39.872;2022-11-11T11:55:43;8.48;79.98
75683;HTU21D;64295;44.772;39.872;2022-11-11T12:01:50;8.37;80.15
75683;HTU21D;64295;44.772;39.872;2022-11-11T12:14:04;8.47;79.89
75683;HTU21D;64295;44.772;39.872;2022-11-11T12:17:03;8.37;80.00
75683;HTU21D;64295;44.772;39.872;2022-11-11T12:40:54;8.52;79.81
75683;HTU21D;64295;44.772;39.872;2022-11-11T12:43:49;8.47;79.76
75683;HTU21D;64295;44.772;39.872;2022-11-11T12:46:45;8.44;79.90
75683;HTU21D;64295;44.772;39.872;2022-11-11T12:56:16;8.41;80.01
75683;HTU21D;64295;44.772;39.872;2022-11-11T13:05:57;8.36;80.11
75683;HTU21D;64295;44.772;39.872;2022-11-11T13:09:31;8.34;80.04
75683;HTU21D;64295;44.772;39.872;2022-11-11T13:13:10;8.26;80.08
75683;HTU21D;64295;44.772;39.872;2022-11-11T13:15:49;8.18;80.17
75683;HTU21D;64295;44.772;39.872;2022-11-11T13:18:57;8.11;80.31
75683;HTU21D;64295;44.772;39.872;2022-11-11T13:22:07;8.11;80.33
75683;HTU21D;64295;44.772;39.872;2022-11-11T13:24:57;8.11;80.27
75683;HTU21D;64295;44.772;39.872;2022-11-11T13:27:50;8.12;80.27
75683;HTU21D;64295;44.772;39.872;2022-11-11T13:34:11;8.11;80.20
75683;HTU21D;64295;44.772;39.872;2022-11-11T13:37:29;8.12;80.15
75683;HTU21D;64295;44.772;39.872;2022-11-11T13:40:42;8.11;80.10
75683;HTU21D;64295;44.772;39.872;2022-11-11T13:43:45;8.08;80.12
75683;HTU21D;64295;44.772;39.872;2022-11-11T13:46:42;8.07;80.12
75683;HTU21D;64295;44.772;39.872;2022-11-11T13:49:58;8.04;80.15
75683;HTU21D;64295;44.772;39.872;2022-11-11T13:53:01;8.04;80.14
75683;HTU21D;64295;44.772;39.872;2022-11-11T13:55:51;8.00;80.12
75683;HTU21D;64295;44.772;39.872;2022-11-11T13:58:48;7.97;80.14
75683;HTU21D;64295;44.772;39.872;2022-11-11T14:01:37;7.94;80.13
75683;HTU21D;64295;44.772;39.872;2022-11-11T14:04:26;7.92;80.12
75683;HTU21D;64295;44.772;39.872;2022-11-11T14:17:01;7.86;80.07
75683;HTU21D;64295;44.772;39.872;2022-11-11T14:22:32;7.82;80.10
75683;HTU21D;64295;44.772;39.872;2022-11-11T14:25:27;7.74;80.15
75683;HTU21D;64295;44.772;39.872;2022-11-11T14:28:30;7.71;80.18
75683;HTU21D;64295;44.772;39.872;2022-11-11T14:37:38;7.74;80.07
75683;HTU21D;64295;44.772;39.872;2022-11-11T14:40:31;7.74;79.96
75683;HTU21D;64295;44.772;39.872;2022-11-11T14:43:35;7.65;80.11
75683;HTU21D;64295;44.772;39.872;2022-11-11T14:46:20;7.60;80.17
75683;HTU21D;64295;44.772;39.872;2022-11-11T14:49:06;7.57;80.24
75683;HTU21D;64295;44.772;39.872;2022-11-11T14:51:52;7.50;80.30
75683;HTU21D;64295;44.772;39.872;2022-11-11T14:58:13;7.40;80.47
75683;HTU21D;64295;44.772;39.872;2022-11-11T15:01:15;7.38;80.48
75683;HTU21D;64295;44.772;39.872;2022-11-11T15:04:03;7.39;80.45
75683;HTU21D;64295;44.772;39.872;2022-11-11T15:06:57;7.40;80.44
75683;HTU21D;64295;44.772;39.872;2022-11-11T15:09:51;7.42;80.41
75683;HTU21D;64295;44.772;39.872;2022-11-11T15:15:46;7.50;80.26
75683;HTU21D;64295;44.772;39.872;2022-11-11T15:31:42;7.60;80.24
75683;HTU21D;64295;44.772;39.872;2022-11-11T15:37:35;7.63;80.15
75683;HTU21D;64295;44.772;39.872;2022-11-11T15:40:21;7.63;80.22
75683;HTU21D;64295;44.772;39.872;2022-11-11T15:43:09;7.67;80.22
75683;HTU21D;64295;44.772;39.872;2022-11-11T15:46:02;7.65;80.27
75683;HTU21D;64295;44.772;39.872;2022-11-11T15:48:47;7.62;80.27
75683;HTU21D;64295;44.772;39.872;2022-11-11T15:51:31;7.60;80.36
75683;HTU21D;64295;44.772;39.872;2022-11-11T15:54:19;7.58;80.41
75683;HTU21D;64295;44.772;39.872;2022-11-11T15:57:32;7.57;80.49
75683;HTU21D;64295;44.772;39.872;2022-11-11T16:00:27;7.56;80.49
75683;HTU21D;64295;44.772;39.872;2022-11-11T16:03:20;7.52;80.52
75683;HTU21D;64295;44.772;39.872;2022-11-11T16:06:09;7.50;80.59
75683;HTU21D;64295;44.772;39.872;2022-11-11T16:08:57;7.52;80.56
75683;HTU21D;64295;44.772;39.872;2022-11-11T16:11:42;7.48;80.51
75683;HTU21D;64295;44.772;39.872;2022-11-11T16:14:35;7.33;80.73
75683;HTU21D;64295;44.772;39.872;2022-11-11T16:17:26;7.24;81.01
75683;HTU21D;64295;44.772;39.872;2022-11-11T16:20:14;7.12;81.14
75683;HTU21D;64295;44.772;39.872;2022-11-11T16:23:01;7.02;81.33
75683;HTU21D;64295;44.772;39.872;2022-11-11T16:25:48;7.00;81.33
75683;HTU21D;64295;44.772;39.872;2022-11-11T16:28:45;7.02;81.25
75683;HTU21D;64295;44.772;39.872;2022-11-11T16:37:13;7.03;81.06
75683;HTU21D;64295;44.772;39.872;2022-11-11T16:40:35;7.08;81.03
75683;HTU21D;64295;44.772;39.872;2022-11-11T16:43:25;7.11;80.86
75683;HTU21D;64295;44.772;39.872;2022-11-11T16:46:15;7.10;80.78
75683;HTU21D;64295;44.772;39.872;2022-11-11T16:49:26;7.03;80.88
75683;HTU21D;64295;44.772;39.872;2022-11-11T16:52:18;6.89;81.09
75683;HTU21D;64295;44.772;39.872;2022-11-11T16:55:04;6.86;81.20
75683;HTU21D;64295;44.772;39.872;2022-11-11T16:57:49;6.89;81.17
75683;HTU21D;64295;44.772;39.872;2022-11-11T17:00:36;6.95;81.10
75683;HTU21D;64295;44.772;39.872;2022-11-11T17:03:22;6.98;81.00
75683;HTU21D;64295;44.772;39.872;2022-11-11T17:06:10;7.02;80.96
75683;HTU21D;64295;44.772;39.872;2022-11-11T17:08:55;7.04;80.90
75683;HTU21D;64295;44.772;39.872;2022-11-11T17:11:46;7.03;80.92
75683;HTU21D;64295;44.772;39.872;2022-11-11T17:14:34;7.00;80.95
75683;HTU21D;64295;44.772;39.872;2022-11-11T17:17:18;7.00;80.97
75683;HTU21D;64295;44.772;39.872;2022-11-11T17:20:17;7.00;80.96
75683;HTU21D;64295;44.772;39.872;2022-11-11T17:23:06;6.96;81.03
75683;HTU21D;64295;44.772;39.872;2022-11-11T17:25:58;6.96;81.10
75683;HTU21D;64295;44.772;39.872;2022-11-11T17:28:46;6.98;81.04
75683;HTU21D;64295;44.772;39.872;2022-11-11T17:31:30;7.02;80.96
75683;HTU21D;64295;44.772;39.872;2022-11-11T17:34:15;7.05;80.89
75683;HTU21D;64295;44.772;39.872;2022-11-11T17:36:59;7.08;80.83
75683;HTU21D;64295;44.772;39.872;2022-11-11T17:39:44;7.09;80.78
75683;HTU21D;64295;44.772;39.872;2022-11-11T17:42:29;7.09;80.81
75683;HTU21D;64295;44.772;39.872;2022-11-11T17:45:13;7.09;80.82
75683;HTU21D;64295;44.772;39.872;2022-11-11T17:47:58;7.08;80.82
75683;HTU21D;64295;44.772;39.872;2022-11-11T17:50:42;7.02;80.90
75683;HTU21D;64295;44.772;39.872;2022-11-11T17:53:27;6.98;80.98
75683;HTU21D;64295;44.772;39.872;2022-11-11T17:56:11;6.90;81.13
75683;HTU21D;64295;44.772;39.872;2022-11-11T17:58:55;6.86;81.18
75683;HTU21D;64295;44.772;39.872;2022-11-11T18:01:40;6.85;81.20
75683;HTU21D;64295;44.772;39.872;2022-11-11T18:04:24;6.84;81.25
75683;HTU21D;64295;44.772;39.872;2022-11-11T18:07:09;6.83;81.23
75683;HTU21D;64295;44.772;39.872;2022-11-11T18:09:55;6.86;81.15
75683;HTU21D;64295;44.772;39.872;2022-11-11T18:12:46;6.85;81.08
75683;HTU21D;64295;44.772;39.872;2022-11-11T18:15:37;6.86;81.04
75683;HTU21D;64295;44.772;39.872;2022-11-11T18:18:39;6.76;81.07
75683;HTU21D;64295;44.772;39.872;2022-11-11T18:21:30;6.67;81.22
75683;HTU21D;64295;44.772;39.872;2022-11-11T18:24:16;6.57;81.32
75683;HTU21D;64295;44.772;39.872;2022-11-11T18:27:03;6.44;81.39
75683;HTU21D;64295;44.772;39.872;2022-11-11T18:29:47;6.35;81.49
75683;HTU21D;64295;44.772;39.872;2022-11-11T18:32:31;6.31;81.51
75683;HTU21D;64295;44.772;39.872;2022-11-11T18:35:16;6.37;81.38
75683;HTU21D;64295;44.772;39.872;2022-11-11T18:38:01;6.36;81.33
75683;HTU21D;64295;44.772;39.872;2022-11-11T18:40:46;6.39;81.27
75683;HTU21D;64295;44.772;39.872;2022-11-11T18:43:37;6.39;81.17
75683;HTU21D;64295;44.772;39.872;2022-11-11T18:46:25;6.38;81.21
75683;HTU21D;64295;44.772;39.872;2022-11-11T18:49:15;6.36;81.18
75683;HTU21D;64295;44.772;39.872;2022-11-11T18:51:59;6.29;81.27
75683;HTU21D;64295;44.772;39.872;2022-11-11T18:54:43;6.25;81.37
75683;HTU21D;64295;44.772;39.872;2022-11-11T18:57:28;6.24;81.39
75683;HTU21D;64295;44.772;39.872;2022-11-11T19:00:13;6.25;81.37
75683;HTU21D;64295;44.772;39.872;2022-11-11T19:02:58;6.28;81.33
75683;HTU21D;64295;44.772;39.872;2022-11-11T19:05:42;6.27;81.26
75683;HTU21D;64295;44.772;39.872;2022-11-11T19:08:28;6.24;81.28
75683;HTU21D;64295;44.772;39.872;2022-11-11T19:11:14;6.22;81.34
75683;HTU21D;64295;44.772;39.872;2022-11-11T19:14:00;6.23;81.35
75683;HTU21D;64295;44.772;39.872;2022-11-11T19:16:45;6.20;81.38
75683;HTU21D;64295;44.772;39.872;2022-11-11T19:19:29;6.20;81.36
75683;HTU21D;64295;44.772;39.872;2022-11-11T19:22:16;6.21;81.36
75683;HTU21D;64295;44.772;39.872;2022-11-11T19:25:03;6.21;81.36
75683;HTU21D;64295;44.772;39.872;2022-11-11T19:27:54;6.23;81.28
75683;HTU21D;64295;44.772;39.872;2022-11-11T19:30:41;6.20;81.26
75683;HTU21D;64295;44.772;39.872;2022-11-11T19:33:33;6.09;81.42
75683;HTU21D;64295;44.772;39.872;2022-11-11T19:36:20;5.95;81.60
75683;HTU21D;64295;44.772;39.872;2022-11-11T19:39:08;5.80;81.86
75683;HTU21D;64295;44.772;39.872;2022-11-11T19:41:54;5.70;82.09
75683;HTU21D;64295;44.772;39.872;2022-11-11T19:44:39;5.74;82.02
75683;HTU21D;64295;44.772;39.872;2022-11-11T19:47:23;5.78;81.84